sensor_id;sensor_type;location;lat;lon;timestamp;temperature;humidity
5786;DHT22;2919;48.630;9.000;2023-02-22T00:00:17;3.10;99.90
5786;DHT22;2919;48.630;9.000;2023-02-22T00:02:56;3.00;99.90
5786;DHT22;2919;48.630;9.000;2023-02-22T00:05:27;3.00;99.90
5786;DHT22;2919;48.630;9.000;2023-02-22T00:07:53;3.10;99.90
5786;DHT22;2919;48.630;9.000;2023-02-22T00:10:21;3.10;99.90
5786;DHT22;2919;48.630;9.000;2023-02-22T00:12:49;3.10;99.90
5786;DHT22;2919;48.630;9.000;2023-02-22T00:15:19;3.10;99.90
5786;DHT22;2919;48.630;9.000;2023-02-22T00:17:45;3.10;99.90
5786;DHT22;2919;48.630;9.000;2023-02-22T00:20:12;3.10;99.90
5786;DHT22;2919;48.630;9.000;2023-02-22T00:22:46;3.10;99.90
5786;DHT22;2919;48.630;9.000;2023-02-22T00:25:16;3.20;99.90
5786;DHT22;2919;48.630;9.000;2023-02-22T00:27:43;3.20;99.90
5786;DHT22;2919;48.630;9.000;2023-02-22T00:30:14;3.20;99.90
5786;DHT22;2919;48.630;9.000;2023-02-22T00:32:46;3.20;99.90
5786;DHT22;2919;48.630;9.000;2023-02-22T00:35:17;3.20;99.90
5786;DHT22;2919;48.630;9.000;2023-02-22T00:37:45;3.20;99.90
5786;DHT22;2919;48.630;9.000;2023-02-22T00:40:17;3.20;99.90
5786;DHT22;2919;48.630;9.000;2023-02-22T00:42:43;3.20;99.90
5786;DHT22;2919;48.630;9.000;2023-02-22T00:45:11;3.10;99.90
5786;DHT22;2919;48.630;9.000;2023-02-22T00:47:37;3.10;99.90
5786;DHT22;2919;48.630;9.000;2023-02-22T00:50:02;3.10;99.90
5786;DHT22;2919;48.630;9.000;2023-02-22T00:52:28;3.10;99.90
5786;DHT22;2919;48.630;9.000;2023-02-22T00:54:55;3.00;99.90
5786;DHT22;2919;48.630;9.000;2023-02-22T00:57:22;2.90;99.90
5786;DHT22;2919;48.630;9.000;2023-02-22T00:59:47;2.80;99.90
5786;DHT22;2919;48.630;9.000;2023-02-22T01:02:13;2.70;99.90
5786;DHT22;2919;48.630;9.000;2023-02-22T01:04:39;2.70;99.90
5786;DHT22;2919;48.630;9.000;2023-02-22T01:07:04;2.60;99.90
5786;DHT22;2919;48.630;9.000;2023-02-22T01:09:30;2.60;99.90
5786;DHT22;2919;48.630;9.000;2023-02-22T01:11:56;2.50;99.90
5786;DHT22;2919;48.630;9.000;2023-02-22T01:14:23;2.50;99.90
5786;DHT22;2919;48.630;9.000;2023-02-22T01:16:51;2.50;99.90
5786;DHT22;2919;48.630;9.000;2023-02-22T01:19:18;2.60;99.90
5786;DHT22;2919;48.630;9.000;2023-02-22T01:21:44;2.60;99.90
5786;DHT22;2919;48.630;9.000;2023-02-22T01:24:12;2.70;99.90
5786;DHT22;2919;48.630;9.000;2023-02-22T01:26:48;2.70;99.90
5786;DHT22;2919;48.630;9.000;2023-02-22T01:29:15;2.70;99.90
5786;DHT22;2919;48.630;9.000;2023-02-22T01:31:42;2.80;99.90
5786;DHT22;2919;48.630;9.000;2023-02-22T01:34:10;2.70;99.90
5786;DHT22;2919;48.630;9.000;2023-02-22T01:36:37;2.60;99.90
5786;DHT22;2919;48.630;9.000;2023-02-22T01:39:04;2.60;99.90
5786;DHT22;2919;48.630;9.000;2023-02-22T01:41:30;2.50;99.90
5786;DHT22;2919;48.630;9.000;2023-02-22T01:43:56;2.50;99.90
5786;DHT22;2919;48.630;9.000;2023-02-22T01:46:25;2.50;99.90
5786;DHT22;2919;48.630;9.000;2023-02-22T01:49:03;2.50;99.90
5786;DHT22;2919;48.630;9.000;2023-02-22T01:51:38;2.50;99.90
5786;DHT22;2919;48.630;9.000;2023-02-22T01:54:30;2.50;99.90
5786;DHT22;2919;48.630;9.000;2023-02-22T01:57:02;2.50;99.90
5786;DHT22;2919;48.630;9.000;2023-02-22T01:59:35;2.60;99.90
5786;DHT22;2919;48.630;9.000;2023-02-22T02:02:02;2.60;99.90
5786;DHT22;2919;48.630;9.000;2023-02-22T02:04:30;2.60;99.90
5786;DHT22;2919;48.630;9.000;2023-02-22T02:06:59;2.60;99.90
5786;DHT22;2919;48.630;9.000;2023-02-22T02:09:53;2.70;99.90
5786;DHT22;2919;48.630;9.000;2023-02-22T02:12:22;2.70;99.90
5786;DHT22;2919;48.630;9.000;2023-02-22T02:14:48;2.70;99.90
5786;DHT22;2919;48.630;9.000;2023-02-22T02:17:16;2.60;99.90
5786;DHT22;2919;48.630;9.000;2023-02-22T02:28:09;2.60;99.90
5786;DHT22;2919;48.630;9.000;2023-02-22T02:36:18;2.50;99.90
5786;DHT22;2919;48.630;9.000;2023-02-22T02:41:34;2.40;99.90
5786;DHT22;2919;48.630;9.000;2023-02-22T02:44:04;2.40;99.90
5786;DHT22;2919;48.630;9.000;2023-02-22T02:46:37;2.30;99.90
5786;DHT22;2919;48.630;9.000;2023-02-22T02:49:14;2.30;99.90
5786;DHT22;2919;48.630;9.000;2023-02-22T02:51:45;2.30;99.90
5786;DHT22;2919;48.630;9.000;2023-02-22T02:54:12;2.30;99.90
5786;DHT22;2919;48.630;9.000;2023-02-22T02:56:40;2.30;99.90
5786;DHT22;2919;48.630;9.000;2023-02-22T03:12:58;2.40;99.90
5786;DHT22;2919;48.630;9.000;2023-02-22T03:21:45;2.40;99.90
5786;DHT22;2919;48.630;9.000;2023-02-22T03:24:26;2.40;99.90
5786;DHT22;2919;48.630;9.000;2023-02-22T03:27:03;2.30;99.90
5786;DHT22;2919;48.630;9.000;2023-02-22T03:29:37;2.40;99.90
5786;DHT22;2919;48.630;9.000;2023-02-22T03:32:08;2.30;99.90
5786;DHT22;2919;48.630;9.000;2023-02-22T03:34:39;2.30;99.90
5786;DHT22;2919;48.630;9.000;2023-02-22T03:37:31;2.30;99.90
5786;DHT22;2919;48.630;9.000;2023-02-22T03:39:59;2.30;99.90
5786;DHT22;2919;48.630;9.000;2023-02-22T03:42:30;2.30;99.90
5786;DHT22;2919;48.630;9.000;2023-02-22T03:44:59;2.30;99.90
5786;DHT22;2919;48.630;9.000;2023-02-22T03:47:36;2.30;99.90
5786;DHT22;2919;48.630;9.000;2023-02-22T03:50:10;2.20;99.90
5786;DHT22;2919;48.630;9.000;2023-02-22T03:52:40;2.20;99.90
5786;DHT22;2919;48.630;9.000;2023-02-22T03:55:09;2.20;99.90
5786;DHT22;2919;48.630;9.000;2023-02-22T03:57:38;2.20;99.90
5786;DHT22;2919;48.630;9.000;2023-02-22T04:00:07;2.20;99.90
5786;DHT22;2919;48.630;9.000;2023-02-22T04:02:34;2.10;99.90
5786;DHT22;2919;48.630;9.000;2023-02-22T04:04:59;2.00;99.90
5786;DHT22;2919;48.630;9.000;2023-02-22T04:07:25;2.00;99.90
5786;DHT22;2919;48.630;9.000;2023-02-22T04:09:51;2.00;99.90
5786;DHT22;2919;48.630;9.000;2023-02-22T04:12:16;1.90;99.90
5786;DHT22;2919;48.630;9.000;2023-02-22T04:14:42;1.90;99.90
5786;DHT22;2919;48.630;9.000;2023-02-22T04:17:07;1.90;99.90
5786;DHT22;2919;48.630;9.000;2023-02-22T04:19:34;1.90;99.90
5786;DHT22;2919;48.630;9.000;2023-02-22T04:21:59;1.80;99.90
5786;DHT22;2919;48.630;9.000;2023-02-22T04:24:25;1.80;99.90
5786;DHT22;2919;48.630;9.000;2023-02-22T04:26:50;1.80;99.90
5786;DHT22;2919;48.630;9.000;2023-02-22T04:29:17;1.80;99.90
5786;DHT22;2919;48.630;9.000;2023-02-22T04:31:42;1.80;99.90
5786;DHT22;2919;48.630;9.000;2023-02-22T04:34:08;1.80;99.90
5786;DHT22;2919;48.630;9.000;2023-02-22T04:36:34;1.80;99.90
5786;DHT22;2919;48.630;9.000;2023-02-22T04:39:00;1.70;99.90
5786;DHT22;2919;48.630;9.000;2023-02-22T04:41:25;1.80;99.90
5786;DHT22;2919;48.630;9.000;2023-02-22T04:43:51;1.70;99.90
5786;DHT22;2919;48.630;9.000;2023-02-22T04:46:17;1.70;99.90
5786;DHT22;2919;48.630;9.000;2023-02-22T04:48:42;1.70;99.90
5786;DHT22;2919;48.630;9.000;2023-02-22T04:51:08;1.70;99.90
5786;DHT22;2919;48.630;9.000;2023-02-22T04:53:34;1.70;99.90
5786;DHT22;2919;48.630;9.000;2023-02-22T04:56:00;1.60;99.90
5786;DHT22;2919;48.630;9.000;2023-02-22T04:58:26;1.60;99.90
5786;DHT22;2919;48.630;9.000;2023-02-22T05:00:52;1.50;99.90
5786;DHT22;2919;48.630;9.000;2023-02-22T05:03:17;1.50;99.90
5786;DHT22;2919;48.630;9.000;2023-02-22T05:05:43;1.60;99.90
5786;DHT22;2919;48.630;9.000;2023-02-22T05:08:08;1.60;99.90
5786;DHT22;2919;48.630;9.000;2023-02-22T05:10:34;1.60;99.90
5786;DHT22;2919;48.630;9.000;2023-02-22T05:13:00;1.60;99.90
5786;DHT22;2919;48.630;9.000;2023-02-22T05:15:25;1.60;99.90
5786;DHT22;2919;48.630;9.000;2023-02-22T05:17:51;1.60;99.90
5786;DHT22;2919;48.630;9.000;2023-02-22T05:20:24;1.60;99.90
5786;DHT22;2919;48.630;9.000;2023-02-22T05:22:56;1.70;99.90
5786;DHT22;2919;48.630;9.000;2023-02-22T05:25:22;1.70;99.90
5786;DHT22;2919;48.630;9.000;2023-02-22T05:28:07;1.70;99.90
5786;DHT22;2919;48.630;9.000;2023-02-22T05:30:35;1.70;99.90
5786;DHT22;2919;48.630;9.000;2023-02-22T05:33:01;1.70;99.90
5786;DHT22;2919;48.630;9.000;2023-02-22T05:35:27;1.70;99.90
5786;DHT22;2919;48.630;9.000;2023-02-22T05:37:54;1.70;99.90
5786;DHT22;2919;48.630;9.000;2023-02-22T05:40:22;1.70;99.90
5786;DHT22;2919;48.630;9.000;2023-02-22T05:42:49;1.70;99.90
5786;DHT22;2919;48.630;9.000;2023-02-22T05:45:17;1.70;99.90
5786;DHT22;2919;48.630;9.000;2023-02-22T05:47:43;1.70;99.90
5786;DHT22;2919;48.630;9.000;2023-02-22T05:50:10;1.70;99.90
5786;DHT22;2919;48.630;9.000;2023-02-22T05:52:36;1.70;99.90
5786;DHT22;2919;48.630;9.000;2023-02-22T05:55:04;1.80;99.90
5786;DHT22;2919;48.630;9.000;2023-02-22T05:57:29;1.90;99.90
5786;DHT22;2919;48.630;9.000;2023-02-22T05:59:55;1.90;99.90
5786;DHT22;2919;48.630;9.000;2023-02-22T06:02:21;1.90;99.90
5786;DHT22;2919;48.630;9.000;2023-02-22T06:04:46;1.90;99.90
5786;DHT22;2919;48.630;9.000;2023-02-22T06:07:13;2.00;99.90
5786;DHT22;2919;48.630;9.000;2023-02-22T06:09:39;2.00;99.90
5786;DHT22;2919;48.630;9.000;2023-02-22T06:12:06;2.00;99.90
5786;DHT22;2919;48.630;9.000;2023-02-22T06:14:32;2.00;99.90
5786;DHT22;2919;48.630;9.000;2023-02-22T06:16:57;2.00;99.90
5786;DHT22;2919;48.630;9.000;2023-02-22T06:19:23;2.00;99.90
5786;DHT22;2919;48.630;9.000;2023-02-22T06:21:54;2.00;99.90
5786;DHT22;2919;48.630;9.000;2023-02-22T06:24:21;2.00;99.90
5786;DHT22;2919;48.630;9.000;2023-02-22T06:26:56;2.00;99.90
5786;DHT22;2919;48.630;9.000;2023-02-22T06:29:28;2.00;99.90
5786;DHT22;2919;48.630;9.000;2023-02-22T06:31:54;2.00;99.90
5786;DHT22;2919;48.630;9.000;2023-02-22T06:34:20;1.90;99.90
5786;DHT22;2919;48.630;9.000;2023-02-22T06:36:47;1.90;99.90
5786;DHT22;2919;48.630;9.000;2023-02-22T06:39:16;1.90;99.90
5786;DHT22;2919;48.630;9.000;2023-02-22T06:41:44;1.90;99.90
5786;DHT22;2919;48.630;9.000;2023-02-22T06:44:11;1.90;99.90
5786;DHT22;2919;48.630;9.000;2023-02-22T06:46:37;1.90;99.90
5786;DHT22;2919;48.630;9.000;2023-02-22T06:49:03;1.90;99.90
5786;DHT22;2919;48.630;9.000;2023-02-22T06:51:30;2.00;99.90
5786;DHT22;2919;48.630;9.000;2023-02-22T06:54:00;2.00;99.90
5786;DHT22;2919;48.630;9.000;2023-02-22T06:56:25;2.10;99.90
5786;DHT22;2919;48.630;9.000;2023-02-22T06:58:51;2.10;99.90
5786;DHT22;2919;48.630;9.000;2023-02-22T07:01:16;2.20;99.90
5786;DHT22;2919;48.630;9.000;2023-02-22T07:03:42;2.30;99.90
5786;DHT22;2919;48.630;9.000;2023-02-22T07:06:08;2.30;99.90
5786;DHT22;2919;48.630;9.000;2023-02-22T07:08:35;2.30;99.90
5786;DHT22;2919;48.630;9.000;2023-02-22T07:11:00;2.40;99.90
5786;DHT22;2919;48.630;9.000;2023-02-22T07:13:26;2.50;99.90
5786;DHT22;2919;48.630;9.000;2023-02-22T07:15:51;2.60;99.90
5786;DHT22;2919;48.630;9.000;2023-02-22T07:18:17;2.70;99.90
5786;DHT22;2919;48.630;9.000;2023-02-22T07:20:43;2.80;99.90
5786;DHT22;2919;48.630;9.000;2023-02-22T07:23:09;2.80;99.90
5786;DHT22;2919;48.630;9.000;2023-02-22T07:25:37;3.00;99.90
5786;DHT22;2919;48.630;9.000;2023-02-22T07:28:03;3.00;99.90
5786;DHT22;2919;48.630;9.000;2023-02-22T07:30:31;3.20;99.90
5786;DHT22;2919;48.630;9.000;2023-02-22T07:33:01;3.30;99.90
5786;DHT22;2919;48.630;9.000;2023-02-22T07:35:32;3.40;99.90
5786;DHT22;2919;48.630;9.000;2023-02-22T07:37:58;3.60;99.90
5786;DHT22;2919;48.630;9.000;2023-02-22T07:40:25;3.80;99.90
5786;DHT22;2919;48.630;9.000;2023-02-22T07:45:28;4.20;99.90
5786;DHT22;2919;48.630;9.000;2023-02-22T07:47:55;4.30;99.90
5786;DHT22;2919;48.630;9.000;2023-02-22T07:50:22;4.50;99.90
5786;DHT22;2919;48.630;9.000;2023-02-22T07:52:50;4.60;99.90
5786;DHT22;2919;48.630;9.000;2023-02-22T07:55:18;4.90;99.90
5786;DHT22;2919;48.630;9.000;2023-02-22T07:57:45;5.20;99.90
5786;DHT22;2919;48.630;9.000;2023-02-22T08:00:13;5.50;99.90
5786;DHT22;2919;48.630;9.000;2023-02-22T08:02:40;5.90;99.90
5786;DHT22;2919;48.630;9.000;2023-02-22T08:05:07;6.20;99.90
5786;DHT22;2919;48.630;9.000;2023-02-22T08:07:38;6.40;99.90
5786;DHT22;2919;48.630;9.000;2023-02-22T08:10:05;6.70;99.90
5786;DHT22;2919;48.630;9.000;2023-02-22T08:12:35;7.00;99.90
5786;DHT22;2919;48.630;9.000;2023-02-22T08:15:02;7.10;99.90
5786;DHT22;2919;48.630;9.000;2023-02-22T08:17:28;7.50;99.90
5786;DHT22;2919;48.630;9.000;2023-02-22T08:19:54;7.90;99.90
5786;DHT22;2919;48.630;9.000;2023-02-22T08:22:20;8.10;99.90
5786;DHT22;2919;48.630;9.000;2023-02-22T08:24:45;8.40;99.90
5786;DHT22;2919;48.630;9.000;2023-02-22T08:27:11;8.80;99.90
5786;DHT22;2919;48.630;9.000;2023-02-22T08:29:36;9.30;99.80
5786;DHT22;2919;48.630;9.000;2023-02-22T08:32:02;9.60;99.30
5786;DHT22;2919;48.630;9.000;2023-02-22T08:34:28;10.00;98.20
5786;DHT22;2919;48.630;9.000;2023-02-22T08:36:54;10.30;97.50
5786;DHT22;2919;48.630;9.000;2023-02-22T08:39:20;10.50;97.10
5786;DHT22;2919;48.630;9.000;2023-02-22T08:41:46;10.60;97.10
5786;DHT22;2919;48.630;9.000;2023-02-22T08:44:11;10.70;97.30
5786;DHT22;2919;48.630;9.000;2023-02-22T08:46:37;10.50;97.00
5786;DHT22;2919;48.630;9.000;2023-02-22T08:49:03;10.60;97.40
5786;DHT22;2919;48.630;9.000;2023-02-22T08:51:36;10.70;97.30
5786;DHT22;2919;48.630;9.000;2023-02-22T08:54:02;10.90;96.30
5786;DHT22;2919;48.630;9.000;2023-02-22T08:56:28;11.10;96.50
5786;DHT22;2919;48.630;9.000;2023-02-22T08:58:55;11.00;96.10
5786;DHT22;2919;48.630;9.000;2023-02-22T09:01:22;10.90;96.30
5786;DHT22;2919;48.630;9.000;2023-02-22T09:03:49;10.90;96.70
5786;DHT22;2919;48.630;9.000;2023-02-22T09:06:15;10.80;96.80
5786;DHT22;2919;48.630;9.000;2023-02-22T09:08:40;10.50;96.70
5786;DHT22;2919;48.630;9.000;2023-02-22T09:11:06;10.30;96.70
5786;DHT22;2919;48.630;9.000;2023-02-22T09:13:31;10.10;96.90
5786;DHT22;2919;48.630;9.000;2023-02-22T09:15:57;10.00;97.00
5786;DHT22;2919;48.630;9.000;2023-02-22T09:18:23;10.00;97.20
5786;DHT22;2919;48.630;9.000;2023-02-22T09:20:48;10.00;97.20
5786;DHT22;2919;48.630;9.000;2023-02-22T09:23:14;10.10;97.40
5786;DHT22;2919;48.630;9.000;2023-02-22T09:25:39;10.00;97.40
5786;DHT22;2919;48.630;9.000;2023-02-22T09:28:05;10.00;97.70
5786;DHT22;2919;48.630;9.000;2023-02-22T09:30:33;10.00;97.80
5786;DHT22;2919;48.630;9.000;2023-02-22T09:33:14;10.10;97.90
5786;DHT22;2919;48.630;9.000;2023-02-22T09:35:41;10.30;97.60
5786;DHT22;2919;48.630;9.000;2023-02-22T09:38:10;10.40;97.20
5786;DHT22;2919;48.630;9.000;2023-02-22T09:40:39;10.30;97.00
5786;DHT22;2919;48.630;9.000;2023-02-22T09:48:27;10.20;97.10
5786;DHT22;2919;48.630;9.000;2023-02-22T09:50:58;10.30;97.30
5786;DHT22;2919;48.630;9.000;2023-02-22T09:53:34;10.30;97.30
5786;DHT22;2919;48.630;9.000;2023-02-22T09:56:07;10.30;97.40
5786;DHT22;2919;48.630;9.000;2023-02-22T09:58:40;10.40;96.70
5786;DHT22;2919;48.630;9.000;2023-02-22T10:01:29;10.50;96.50
5786;DHT22;2919;48.630;9.000;2023-02-22T10:07:05;10.80;96.20
5786;DHT22;2919;48.630;9.000;2023-02-22T10:09:38;10.90;96.10
5786;DHT22;2919;48.630;9.000;2023-02-22T10:12:29;10.80;96.60
5786;DHT22;2919;48.630;9.000;2023-02-22T10:18:03;11.10;95.40
5786;DHT22;2919;48.630;9.000;2023-02-22T10:23:49;11.40;94.90
5786;DHT22;2919;48.630;9.000;2023-02-22T10:26:28;11.60;94.60
5786;DHT22;2919;48.630;9.000;2023-02-22T10:31:40;11.70;94.20
5786;DHT22;2919;48.630;9.000;2023-02-22T10:34:21;11.80;94.50
5786;DHT22;2919;48.630;9.000;2023-02-22T10:36:53;12.10;93.60
5786;DHT22;2919;48.630;9.000;2023-02-22T10:39:27;12.20;93.10
5786;DHT22;2919;48.630;9.000;2023-02-22T10:41:57;12.20;92.90
5786;DHT22;2919;48.630;9.000;2023-02-22T10:44:23;12.30;93.40
5786;DHT22;2919;48.630;9.000;2023-02-22T10:46:49;12.40;92.70
5786;DHT22;2919;48.630;9.000;2023-02-22T10:49:20;12.50;92.40
5786;DHT22;2919;48.630;9.000;2023-02-22T10:51:59;12.50;92.40
5786;DHT22;2919;48.630;9.000;2023-02-22T10:54:29;12.50;92.30
5786;DHT22;2919;48.630;9.000;2023-02-22T10:56:56;12.50;92.80
5786;DHT22;2919;48.630;9.000;2023-02-22T11:01:58;12.90;92.40
5786;DHT22;2919;48.630;9.000;2023-02-22T11:04:23;13.00;92.30
5786;DHT22;2919;48.630;9.000;2023-02-22T11:07:08;13.20;91.80
5786;DHT22;2919;48.630;9.000;2023-02-22T11:09:58;13.50;91.30
5786;DHT22;2919;48.630;9.000;2023-02-22T11:12:34;13.40;91.00
5786;DHT22;2919;48.630;9.000;2023-02-22T11:17:50;13.30;91.00
5786;DHT22;2919;48.630;9.000;2023-02-22T11:20:22;13.60;90.80
5786;DHT22;2919;48.630;9.000;2023-02-22T11:22:56;13.80;90.50
5786;DHT22;2919;48.630;9.000;2023-02-22T11:25:39;14.00;90.60
5786;DHT22;2919;48.630;9.000;2023-02-22T11:28:09;13.90;89.10
5786;DHT22;2919;48.630;9.000;2023-02-22T11:30:35;13.70;89.20
5786;DHT22;2919;48.630;9.000;2023-02-22T11:35:55;13.80;87.90
5786;DHT22;2919;48.630;9.000;2023-02-22T11:38:25;13.80;87.40
5786;DHT22;2919;48.630;9.000;2023-02-22T11:43:39;13.60;89.10
5786;DHT22;2919;48.630;9.000;2023-02-22T11:46:26;13.70;89.00
5786;DHT22;2919;48.630;9.000;2023-02-22T11:59:40;14.80;87.00
5786;DHT22;2919;48.630;9.000;2023-02-22T12:11:00;15.20;83.00
5786;DHT22;2919;48.630;9.000;2023-02-22T12:19:31;14.90;82.80
5786;DHT22;2919;48.630;9.000;2023-02-22T12:22:07;14.90;83.70
5786;DHT22;2919;48.630;9.000;2023-02-22T12:24:47;14.90;84.10
5786;DHT22;2919;48.630;9.000;2023-02-22T12:27:19;14.80;84.20
5786;DHT22;2919;48.630;9.000;2023-02-22T12:30:06;14.70;82.70
5786;DHT22;2919;48.630;9.000;2023-02-22T12:32:44;14.50;82.60
5786;DHT22;2919;48.630;9.000;2023-02-22T12:38:08;14.60;84.10
5786;DHT22;2919;48.630;9.000;2023-02-22T12:43:33;15.00;87.40
5786;DHT22;2919;48.630;9.000;2023-02-22T12:46:07;15.20;85.60
5786;DHT22;2919;48.630;9.000;2023-02-22T12:48:37;15.30;84.60
5786;DHT22;2919;48.630;9.000;2023-02-22T12:53:39;15.10;85.20
5786;DHT22;2919;48.630;9.000;2023-02-22T12:56:17;15.10;85.40
5786;DHT22;2919;48.630;9.000;2023-02-22T12:58:50;15.20;85.80
5786;DHT22;2919;48.630;9.000;2023-02-22T13:01:25;15.20;86.80
5786;DHT22;2919;48.630;9.000;2023-02-22T13:03:53;15.30;84.50
5786;DHT22;2919;48.630;9.000;2023-02-22T13:06:35;15.20;86.30
5786;DHT22;2919;48.630;9.000;2023-02-22T13:11:52;15.10;85.90
5786;DHT22;2919;48.630;9.000;2023-02-22T13:17:18;14.60;89.30
5786;DHT22;2919;48.630;9.000;2023-02-22T13:22:32;14.40;89.10
5786;DHT22;2919;48.630;9.000;2023-02-22T13:27:53;14.30;89.80
5786;DHT22;2919;48.630;9.000;2023-02-22T13:30:41;14.30;90.80
5786;DHT22;2919;48.630;9.000;2023-02-22T13:52:37;14.50;89.80
5786;DHT22;2919;48.630;9.000;2023-02-22T13:55:16;14.50;89.10
5786;DHT22;2919;48.630;9.000;2023-02-22T13:57:44;14.40;90.00
5786;DHT22;2919;48.630;9.000;2023-02-22T14:03:16;14.30;90.30
5786;DHT22;2919;48.630;9.000;2023-02-22T14:05:52;14.50;89.50
5786;DHT22;2919;48.630;9.000;2023-02-22T14:13:14;14.10;90.80
5786;DHT22;2919;48.630;9.000;2023-02-22T14:18:25;14.10;91.00
5786;DHT22;2919;48.630;9.000;2023-02-22T14:21:18;14.10;91.10
5786;DHT22;2919;48.630;9.000;2023-02-22T14:23:49;14.10;91.20
5786;DHT22;2919;48.630;9.000;2023-02-22T14:26:32;14.00;91.80
5786;DHT22;2919;48.630;9.000;2023-02-22T14:29:13;14.10;91.60
5786;DHT22;2919;48.630;9.000;2023-02-22T14:39:37;14.30;91.40
5786;DHT22;2919;48.630;9.000;2023-02-22T14:44:38;14.30;91.40
5786;DHT22;2919;48.630;9.000;2023-02-22T14:47:06;14.40;91.50
5786;DHT22;2919;48.630;9.000;2023-02-22T14:49:39;14.40;91.20
5786;DHT22;2919;48.630;9.000;2023-02-22T14:52:19;14.30;91.60
5786;DHT22;2919;48.630;9.000;2023-02-22T14:55:16;14.20;91.60
5786;DHT22;2919;48.630;9.000;2023-02-22T15:00:17;14.10;91.50
5786;DHT22;2919;48.630;9.000;2023-02-22T15:02:48;13.90;92.10
5786;DHT22;2919;48.630;9.000;2023-02-22T15:05:16;13.90;92.00
5786;DHT22;2919;48.630;9.000;2023-02-22T15:08:11;13.90;91.90
5786;DHT22;2919;48.630;9.000;2023-02-22T15:10:44;13.80;91.90
5786;DHT22;2919;48.630;9.000;2023-02-22T15:13:19;13.80;92.00
5786;DHT22;2919;48.630;9.000;2023-02-22T15:15:56;14.00;91.50
5786;DHT22;2919;48.630;9.000;2023-02-22T15:18:36;13.90;91.80
5786;DHT22;2919;48.630;9.000;2023-02-22T15:21:09;13.80;92.00
5786;DHT22;2919;48.630;9.000;2023-02-22T15:23:43;13.60;92.10
5786;DHT22;2919;48.630;9.000;2023-02-22T15:28:51;13.60;92.20
5786;DHT22;2919;48.630;9.000;2023-02-22T15:31:30;13.50;92.40
5786;DHT22;2919;48.630;9.000;2023-02-22T15:33:56;13.40;92.60
5786;DHT22;2919;48.630;9.000;2023-02-22T15:36:27;13.30;92.50
5786;DHT22;2919;48.630;9.000;2023-02-22T15:38:55;13.30;92.70
5786;DHT22;2919;48.630;9.000;2023-02-22T15:41:27;13.20;92.80
5786;DHT22;2919;48.630;9.000;2023-02-22T15:44:08;13.20;92.80
5786;DHT22;2919;48.630;9.000;2023-02-22T15:46:37;13.20;93.10
5786;DHT22;2919;48.630;9.000;2023-02-22T15:51:30;13.00;93.00
5786;DHT22;2919;48.630;9.000;2023-02-22T15:53:59;12.90;93.10
5786;DHT22;2919;48.630;9.000;2023-02-22T15:56:31;12.80;93.20
5786;DHT22;2919;48.630;9.000;2023-02-22T15:59:12;12.80;93.50
5786;DHT22;2919;48.630;9.000;2023-02-22T16:01:40;12.70;93.70
5786;DHT22;2919;48.630;9.000;2023-02-22T16:04:06;12.60;93.60
5786;DHT22;2919;48.630;9.000;2023-02-22T16:06:40;12.60;93.50
5786;DHT22;2919;48.630;9.000;2023-02-22T16:09:23;12.50;93.50
5786;DHT22;2919;48.630;9.000;2023-02-22T16:12:21;12.40;93.70
5786;DHT22;2919;48.630;9.000;2023-02-22T16:14:48;12.40;93.50
5786;DHT22;2919;48.630;9.000;2023-02-22T16:19:50;12.20;93.70
5786;DHT22;2919;48.630;9.000;2023-02-22T16:24:53;12.10;94.50
5786;DHT22;2919;48.630;9.000;2023-02-22T16:27:22;11.90;94.80
5786;DHT22;2919;48.630;9.000;2023-02-22T16:30:20;11.90;94.30
5786;DHT22;2919;48.630;9.000;2023-02-22T16:32:49;11.80;94.20
5786;DHT22;2919;48.630;9.000;2023-02-22T16:35:15;11.80;94.60
5786;DHT22;2919;48.630;9.000;2023-02-22T16:37:48;11.70;94.70
5786;DHT22;2919;48.630;9.000;2023-02-22T16:42:46;11.60;95.10
5786;DHT22;2919;48.630;9.000;2023-02-22T16:45:18;11.50;95.30
5786;DHT22;2919;48.630;9.000;2023-02-22T16:47:45;11.40;95.50
5786;DHT22;2919;48.630;9.000;2023-02-22T16:50:11;11.40;95.60
5786;DHT22;2919;48.630;9.000;2023-02-22T16:52:38;11.40;95.80
5786;DHT22;2919;48.630;9.000;2023-02-22T16:55:09;11.20;95.70
5786;DHT22;2919;48.630;9.000;2023-02-22T16:57:37;11.20;95.80
5786;DHT22;2919;48.630;9.000;2023-02-22T17:00:04;11.10;95.90
5786;DHT22;2919;48.630;9.000;2023-02-22T17:02:37;11.10;96.00
5786;DHT22;2919;48.630;9.000;2023-02-22T17:05:03;11.00;96.20
5786;DHT22;2919;48.630;9.000;2023-02-22T17:07:29;11.00;96.30
5786;DHT22;2919;48.630;9.000;2023-02-22T17:09:56;10.90;96.50
5786;DHT22;2919;48.630;9.000;2023-02-22T17:12:26;10.90;96.60
5786;DHT22;2919;48.630;9.000;2023-02-22T17:14:53;10.80;96.80
5786;DHT22;2919;48.630;9.000;2023-02-22T17:17:18;10.70;96.80
5786;DHT22;2919;48.630;9.000;2023-02-22T17:19:44;10.70;97.00
5786;DHT22;2919;48.630;9.000;2023-02-22T17:22:18;10.60;97.00
5786;DHT22;2919;48.630;9.000;2023-02-22T17:24:44;10.60;97.10
5786;DHT22;2919;48.630;9.000;2023-02-22T17:27:10;10.60;97.30
5786;DHT22;2919;48.630;9.000;2023-02-22T17:29:36;10.50;97.50
5786;DHT22;2919;48.630;9.000;2023-02-22T17:32:01;10.50;97.70
5786;DHT22;2919;48.630;9.000;2023-02-22T17:34:27;10.40;97.70
5786;DHT22;2919;48.630;9.000;2023-02-22T17:36:53;10.40;97.90
5786;DHT22;2919;48.630;9.000;2023-02-22T17:39:18;10.30;98.10
5786;DHT22;2919;48.630;9.000;2023-02-22T17:41:44;10.30;98.40
5786;DHT22;2919;48.630;9.000;2023-02-22T17:44:10;10.30;98.60
5786;DHT22;2919;48.630;9.000;2023-02-22T17:46:36;10.20;98.80
5786;DHT22;2919;48.630;9.000;2023-02-22T17:49:04;10.20;99.00
5786;DHT22;2919;48.630;9.000;2023-02-22T17:51:29;10.20;99.00
5786;DHT22;2919;48.630;9.000;2023-02-22T17:53:55;10.20;98.90
5786;DHT22;2919;48.630;9.000;2023-02-22T17:56:21;10.20;99.10
5786;DHT22;2919;48.630;9.000;2023-02-22T17:58:48;10.10;99.10
5786;DHT22;2919;48.630;9.000;2023-02-22T18:01:20;10.10;99.10
5786;DHT22;2919;48.630;9.000;2023-02-22T18:03:49;10.10;99.10
5786;DHT22;2919;48.630;9.000;2023-02-22T18:06:17;10.10;99.10
5786;DHT22;2919;48.630;9.000;2023-02-22T18:08:45;10.10;99.20
5786;DHT22;2919;48.630;9.000;2023-02-22T18:11:12;10.00;99.20
5786;DHT22;2919;48.630;9.000;2023-02-22T18:13:38;10.00;99.30
5786;DHT22;2919;48.630;9.000;2023-02-22T18:16:04;9.90;99.80
5786;DHT22;2919;48.630;9.000;2023-02-22T18:18:30;9.90;99.70
5786;DHT22;2919;48.630;9.000;2023-02-22T18:20:56;9.90;99.80
5786;DHT22;2919;48.630;9.000;2023-02-22T18:23:26;9.80;99.90
5786;DHT22;2919;48.630;9.000;2023-02-22T18:25:53;9.90;99.90
5786;DHT22;2919;48.630;9.000;2023-02-22T18:28:20;9.90;99.90
5786;DHT22;2919;48.630;9.000;2023-02-22T18:30:46;9.80;99.90
5786;DHT22;2919;48.630;9.000;2023-02-22T18:33:13;9.80;99.90
5786;DHT22;2919;48.630;9.000;2023-02-22T18:35:42;9.80;99.90
5786;DHT22;2919;48.630;9.000;2023-02-22T18:38:09;9.80;99.90
5786;DHT22;2919;48.630;9.000;2023-02-22T18:40:39;9.80;99.90
5786;DHT22;2919;48.630;9.000;2023-02-22T18:43:07;9.80;99.90
5786;DHT22;2919;48.630;9.000;2023-02-22T18:45:32;9.80;99.90
5786;DHT22;2919;48.630;9.000;2023-02-22T18:47:58;9.70;99.90
5786;DHT22;2919;48.630;9.000;2023-02-22T18:50:23;9.70;99.90
5786;DHT22;2919;48.630;9.000;2023-02-22T18:52:49;9.70;99.90
5786;DHT22;2919;48.630;9.000;2023-02-22T18:55:17;9.70;99.90
5786;DHT22;2919;48.630;9.000;2023-02-22T18:57:44;9.70;99.90
5786;DHT22;2919;48.630;9.000;2023-02-22T19:00:12;9.70;99.90
5786;DHT22;2919;48.630;9.000;2023-02-22T19:02:38;9.70;99.90
5786;DHT22;2919;48.630;9.000;2023-02-22T19:05:03;9.70;99.90
5786;DHT22;2919;48.630;9.000;2023-02-22T19:07:30;9.60;99.90
5786;DHT22;2919;48.630;9.000;2023-02-22T19:09:57;9.60;99.90
5786;DHT22;2919;48.630;9.000;2023-02-22T19:12:23;9.60;99.90